Time;durP1;ratioP1;P1;durP2;ratioP2;P2;SDS_P1;SDS_P2;PMS_P1;PMS_P2;Temp;Humidity;BMP_temperature;BMP_pressure;BME280_temperature;BME280_humidity;BME280_pressure;Samples;Min_cycle;Max_cycle;Signal;HPM_P1;HPM_P2
2022/07/31 00:00:38;;;;;;;12.00;11.02;;;15.30;99.90;;;;;;5047185;28;20032;-58
2022/07/31 00:03:04;;;;;;;10.90;10.30;;;15.20;99.90;;;;;;5048620;28;20164;-60
2022/07/31 00:05:30;;;;;;;10.90;10.00;;;15.10;99.90;;;;;;5048828;28;20108;-60
2022/07/31 00:07:57;;;;;;;11.70;10.98;;;15.00;99.90;;;;;;5048431;28;20483;-61
2022/07/31 00:10:23;;;;;;;13.27;12.35;;;15.00;99.90;;;;;;5049692;28;20041;-61
2022/07/31 00:12:49;;;;;;;15.68;14.38;;;14.90;99.90;;;;;;5048051;28;20091;-62
2022/07/31 00:15:14;;;;;;;13.85;12.60;;;14.90;99.90;;;;;;5048550;28;20033;-60
2022/07/31 00:17:42;;;;;;;13.95;13.07;;;14.90;99.90;;;;;;5046844;28;20036;-60
2022/07/31 00:20:12;;;;;;;15.43;14.27;;;14.80;99.90;;;;;;5048684;28;20029;-64
2022/07/31 00:22:38;;;;;;;17.30;16.10;;;14.80;99.90;;;;;;5049053;28;20117;-63
2022/07/31 00:25:04;;;;;;;14.18;12.68;;;14.80;99.90;;;;;;5048304;28;20354;-62
2022/07/31 00:27:30;;;;;;;13.63;12.73;;;14.70;99.90;;;;;;5047746;28;20399;-61
2022/07/31 00:29:56;;;;;;;14.40;13.50;;;14.70;99.90;;;;;;5047702;28;20029;-64
2022/07/31 00:32:21;;;;;;;13.77;12.77;;;14.60;99.90;;;;;;5048378;28;20029;-60
2022/07/31 00:34:47;;;;;;;15.02;13.68;;;14.60;99.90;;;;;;5048166;28;20021;-61
2022/07/31 00:37:13;;;;;;;14.10;13.18;;;14.60;99.90;;;;;;5045757;28;20572;-61
2022/07/31 00:39:38;;;;;;;14.88;13.95;;;14.50;99.90;;;;;;5048190;28;20033;-61
2022/07/31 00:42:04;;;;;;;13.68;12.55;;;14.50;99.90;;;;;;5047840;28;20028;-62
2022/07/31 00:44:30;;;;;;;15.05;13.65;;;14.50;99.90;;;;;;5048532;28;20040;-62
2022/07/31 00:46:56;;;;;;;13.60;12.45;;;14.40;99.90;;;;;;5046679;28;20036;-60
2022/07/31 00:49:21;;;;;;;15.48;14.18;;;14.40;99.90;;;;;;5049299;28;20387;-60
2022/07/31 00:51:47;;;;;;;14.35;13.25;;;14.40;99.90;;;;;;5047897;28;20483;-63
2022/07/31 00:54:13;;;;;;;13.88;12.85;;;14.40;99.90;;;;;;5048328;28;20127;-63
2022/07/31 00:56:38;;;;;;;14.27;13.13;;;14.30;99.90;;;;;;5047249;28;20045;-62
2022/07/31 00:59:04;;;;;;;14.35;13.32;;;14.30;99.90;;;;;;5047767;28;20400;-60
2022/07/31 01:01:30;;;;;;;15.65;14.48;;;14.20;99.90;;;;;;5049050;28;20097;-60
2022/07/31 01:03:56;;;;;;;16.08;15.07;;;14.20;99.90;;;;;;5048138;28;20112;-61
2022/07/31 01:06:22;;;;;;;13.75;12.45;;;14.20;99.90;;;;;;5047500;28;20026;-61
2022/07/31 01:08:48;;;;;;;12.38;11.50;;;14.20;99.90;;;;;;5047645;28;20044;-61
2022/07/31 01:11:23;;;;;;;11.88;11.07;;;14.10;99.90;;;;;;5048183;28;20484;-61
2022/07/31 01:13:56;;;;;;;15.63;14.45;;;14.10;99.90;;;;;;5047903;28;20020;-62
2022/07/31 01:16:26;;;;;;;38.53;19.08;;;14.10;99.90;;;;;;5051189;28;20063;-60
2022/07/31 01:18:55;;;;;;;88.35;21.67;;;14.10;99.90;;;;;;5051963;28;20381;-61
2022/07/31 01:21:30;;;;;;;64.57;22.35;;;14.20;99.90;;;;;;5051106;28;20029;-64
2022/07/31 01:24:10;;;;;;;144.48;24.48;;;14.40;99.90;;;;;;5051509;28;20028;-61
2022/07/31 01:26:56;;;;;;;85.53;24.33;;;14.40;99.90;;;;;;5051237;28;20384;-62
2022/07/31 01:29:31;;;;;;;135.77;24.15;;;14.50;99.90;;;;;;5051351;28;20290;-61
2022/07/31 01:32:02;;;;;;;107.55;20.90;;;14.70;99.90;;;;;;5050717;28;20357;-62
2022/07/31 01:34:34;;;;;;;;;;;14.80;99.90;;;;;;5052036;28;20654;-61
2022/07/31 01:37:10;;;;;;;29.85;16.25;;;14.90;99.90;;;;;;5048977;28;19968;-61
2022/07/31 01:39:37;;;;;;;86.30;17.88;;;15.00;99.90;;;;;;5051304;28;20480;-64
2022/07/31 01:42:06;;;;;;;117.82;18.20;;;15.00;99.90;;;;;;5051194;28;20370;-63
2022/07/31 01:44:39;;;;;;;53.33;19.00;;;15.10;99.90;;;;;;5050984;28;20503;-62
2022/07/31 01:47:06;;;;;;;90.63;20.00;;;15.10;99.90;;;;;;5050460;28;20041;-62
2022/07/31 01:49:33;;;;;;;70.60;20.00;;;15.10;99.90;;;;;;5051134;28;20029;-62
2022/07/31 01:52:01;;;;;;;124.70;22.92;;;15.10;99.90;;;;;;5051043;28;20037;-61
2022/07/31 01:54:29;;;;;;;122.82;19.92;;;15.10;99.90;;;;;;5050381;28;20055;-60
2022/07/31 01:56:58;;;;;;;126.25;19.25;;;15.10;99.90;;;;;;5050669;28;20033;-61
2022/07/31 01:59:25;;;;;;;73.75;18.95;;;15.20;99.90;;;;;;5051060;28;20033;-61
2022/07/31 02:01:56;;;;;;;132.30;18.75;;;15.10;99.90;;;;;;5051062;28;20040;-61
2022/07/31 02:04:39;;;;;;;161.68;20.20;;;15.20;99.90;;;;;;5051245;28;20105;-62
2022/07/31 02:07:06;;;;;;;110.00;18.30;;;15.20;99.90;;;;;;5050111;28;20025;-62
2022/07/31 02:09:34;;;;;;;68.18;19.35;;;15.20;99.90;;;;;;5050590;28;20036;-62
2022/07/31 02:12:01;;;;;;;164.75;22.25;;;15.30;99.90;;;;;;5049613;28;20021;-61
2022/07/31 02:14:28;;;;;;;322.88;26.63;;;15.30;99.90;;;;;;5051105;28;20121;-61
2022/07/31 02:16:55;;;;;;;247.30;23.55;;;15.20;99.90;;;;;;5050034;28;20020;-60
2022/07/31 02:19:22;;;;;;;60.63;18.48;;;15.20;99.90;;;;;;5051477;28;20159;-62
2022/07/31 02:21:48;;;;;;;81.97;19.38;;;15.20;99.90;;;;;;5050106;28;20021;-64
2022/07/31 02:24:14;;;;;;;84.22;21.20;;;15.20;99.90;;;;;;5031854;28;20172;-61
2022/07/31 02:26:40;;;;;;;128.60;20.58;;;15.20;99.90;;;;;;5050029;28;20021;-60
2022/07/31 02:29:07;;;;;;;246.32;24.70;;;15.30;99.90;;;;;;5049664;28;20440;-61
2022/07/31 02:31:34;;;;;;;112.80;20.10;;;15.30;99.90;;;;;;5051142;28;20029;-60
2022/07/31 02:34:00;;;;;;;173.27;24.13;;;15.30;99.90;;;;;;5050051;28;20040;-61
2022/07/31 02:36:28;;;;;;;92.25;19.70;;;15.30;99.90;;;;;;5050183;28;20036;-62
2022/07/31 02:38:55;;;;;;;40.42;19.00;;;15.30;99.90;;;;;;5049918;28;20037;-62
2022/07/31 02:41:23;;;;;;;61.20;19.73;;;15.40;99.90;;;;;;5048932;28;20029;-62
2022/07/31 02:43:49;;;;;;;81.32;20.38;;;15.40;99.90;;;;;;5050437;28;20029;-62
2022/07/31 02:46:17;;;;;;;94.57;20.73;;;15.40;99.90;;;;;;5050011;28;20029;-63
2022/07/31 02:48:43;;;;;;;32.47;16.65;;;15.40;99.90;;;;;;5031101;28;20092;-60
2022/07/31 02:51:09;;;;;;;41.38;16.77;;;15.40;99.90;;;;;;5049154;28;20033;-63
2022/07/31 02:53:39;;;;;;;149.65;22.58;;;15.40;99.90;;;;;;5050324;28;20052;-62
2022/07/31 02:56:08;;;;;;;197.77;24.90;;;15.40;99.90;;;;;;5049278;28;20040;-62
2022/07/31 02:58:34;;;;;;;148.27;24.38;;;15.50;99.90;;;;;;5050216;28;20100;-62
2022/07/31 03:01:02;;;;;;;118.82;20.80;;;15.40;99.90;;;;;;5049609;28;20120;-60
2022/07/31 03:03:28;;;;;;;46.47;20.85;;;15.40;99.90;;;;;;5048697;28;20056;-60
2022/07/31 03:05:54;;;;;;;76.20;19.70;;;15.40;99.90;;;;;;5049495;28;20469;-62
2022/07/31 03:08:19;;;;;;;74.30;20.80;;;15.40;99.90;;;;;;5049507;28;20463;-63
2022/07/31 03:10:46;;;;;;;120.30;21.17;;;15.40;99.90;;;;;;5049271;28;20398;-62
2022/07/31 03:13:12;;;;;;;115.10;22.20;;;15.40;99.90;;;;;;5049926;28;20021;-60
2022/07/31 03:15:39;;;;;;;93.85;21.10;;;15.40;99.90;;;;;;5049486;28;20025;-62
2022/07/31 03:18:06;;;;;;;90.45;20.45;;;15.40;99.90;;;;;;5049059;28;20021;-61
2022/07/31 03:20:33;;;;;;;145.43;22.48;;;15.40;99.90;;;;;;5048912;28;20500;-62
2022/07/31 03:23:00;;;;;;;239.57;27.10;;;15.40;99.90;;;;;;5046812;28;20091;-61
2022/07/31 03:25:26;;;;;;;354.20;28.58;;;15.30;99.90;;;;;;5049316;28;20019;-63
2022/07/31 03:27:53;;;;;;;471.02;32.90;;;15.30;99.90;;;;;;5049275;28;20426;-63
2022/07/31 03:30:23;;;;;;;328.77;29.27;;;15.20;99.90;;;;;;5048446;28;20082;-60
2022/07/31 03:32:51;;;;;;;425.20;29.70;;;15.10;99.90;;;;;;5048974;28;20095;-61
2022/07/31 03:35:17;;;;;;;150.50;23.00;;;15.10;99.90;;;;;;5048905;28;20060;-62
2022/07/31 03:37:43;;;;;;;64.43;22.40;;;15.00;99.90;;;;;;5047522;28;20025;-61
2022/07/31 03:40:09;;;;;;;370.35;27.33;;;15.10;99.90;;;;;;5049279;28;20044;-62
2022/07/31 03:42:35;;;;;;;485.85;32.15;;;15.10;99.90;;;;;;5049132;28;20044;-61
2022/07/31 03:45:02;;;;;;;121.50;21.90;;;15.10;99.90;;;;;;5048645;28;20029;-62
2022/07/31 03:47:31;;;;;;;373.38;27.02;;;15.10;99.90;;;;;;5047493;28;20033;-61
2022/07/31 03:49:59;;;;;;;200.27;26.38;;;15.10;99.90;;;;;;5049342;28;20104;-60
2022/07/31 03:52:25;;;;;;;194.15;25.13;;;15.10;99.90;;;;;;5048631;28;20021;-61
2022/07/31 03:54:50;;;;;;;32.42;21.33;;;15.10;99.90;;;;;;5049232;28;20519;-60
2022/07/31 03:57:17;;;;;;;41.22;23.80;;;15.10;99.90;;;;;;5049006;28;20092;-60
2022/07/31 03:59:44;;;;;;;54.70;25.15;;;15.10;99.90;;;;;;5048047;28;20489;-61
2022/07/31 04:02:09;;;;;;;111.43;24.58;;;15.10;99.90;;;;;;5048594;28;20059;-60
2022/07/31 04:04:36;;;;;;;213.55;27.98;;;15.10;99.90;;;;;;5048293;28;20461;-60
2022/07/31 04:07:03;;;;;;;117.45;23.63;;;15.10;99.90;;;;;;5048321;28;20029;-60
2022/07/31 04:09:29;;;;;;;28.17;20.65;;;15.10;99.90;;;;;;5048118;28;20428;-63
2022/07/31 04:11:55;;;;;;;35.20;20.85;;;15.10;99.90;;;;;;5050123;28;20028;-61
2022/07/31 04:14:20;;;;;;;29.33;18.73;;;15.20;99.90;;;;;;5048705;28;20083;-62
2022/07/31 04:16:46;;;;;;;26.67;19.75;;;15.20;99.90;;;;;;5046971;28;20076;-61
2022/07/31 04:19:12;;;;;;;49.33;20.42;;;15.30;99.90;;;;;;5049292;28;20396;-63
2022/07/31 04:21:37;;;;;;;32.10;20.27;;;15.30;99.90;;;;;;5047845;28;20025;-62
2022/07/31 04:24:03;;;;;;;37.13;21.10;;;15.30;99.90;;;;;;5048731;28;20033;-60
2022/07/31 04:26:29;;;;;;;40.00;21.08;;;15.30;99.90;;;;;;5048005;28;20128;-60
2022/07/31 04:28:55;;;;;;;23.98;20.15;;;15.30;99.90;;;;;;5048460;28;20029;-62
2022/07/31 04:31:20;;;;;;;28.48;19.20;;;15.30;99.90;;;;;;5047911;28;20079;-60
2022/07/31 04:33:46;;;;;;;30.10;19.17;;;15.40;99.90;;;;;;5048369;28;20033;-62
2022/07/31 04:36:11;;;;;;;31.58;18.52;;;15.50;99.90;;;;;;5047143;28;20025;-63
2022/07/31 04:38:37;;;;;;;53.00;22.98;;;15.50;99.90;;;;;;5046447;28;20488;-61
2022/07/31 04:41:03;;;;;;;104.65;19.58;;;15.50;99.90;;;;;;5048744;28;20029;-61
2022/07/31 04:43:28;;;;;;;94.32;19.70;;;15.50;99.90;;;;;;5048393;28;20435;-62
2022/07/31 04:45:54;;;;;;;23.23;18.52;;;15.50;99.90;;;;;;5048267;28;20018;-62
2022/07/31 04:48:20;;;;;;;25.30;17.73;;;15.50;99.90;;;;;;5048030;28;20119;-61
2022/07/31 04:50:45;;;;;;;33.13;18.08;;;15.50;99.90;;;;;;5052123;28;20714;-60
2022/07/31 04:53:11;;;;;;;27.63;18.08;;;15.50;99.90;;;;;;5052315;28;20477;-61
2022/07/31 04:55:37;;;;;;;19.08;17.10;;;15.50;99.90;;;;;;5051987;28;20056;-62
2022/07/31 04:58:02;;;;;;;27.88;16.77;;;15.60;99.90;;;;;;5052085;28;20044;-62
2022/07/31 05:00:28;;;;;;;20.80;16.85;;;15.60;99.90;;;;;;5050402;28;20041;-64
2022/07/31 05:02:54;;;;;;;36.47;17.10;;;15.70;99.90;;;;;;5052523;28;20040;-60
2022/07/31 05:05:19;;;;;;;18.55;16.27;;;15.70;99.90;;;;;;5051680;28;20029;-61
2022/07/31 05:07:45;;;;;;;19.73;17.55;;;15.70;99.90;;;;;;5051029;28;20021;-60
2022/07/31 05:11:21;;;;;;;23.17;16.75;;;15.80;99.90;;;;;;5052193;28;20039;-63
2022/07/31 05:12:58;;;;;;;21.92;16.77;;;15.70;99.90;;;;;;5051388;28;20051;-61
2022/07/31 05:15:23;;;;;;;21.77;17.45;;;15.80;99.90;;;;;;5052287;28;20537;-61
2022/07/31 05:17:49;;;;;;;20.45;16.77;;;15.70;99.90;;;;;;5050353;28;20033;-63
2022/07/31 05:20:15;;;;;;;19.02;16.30;;;15.80;99.90;;;;;;5050971;28;20033;-61
2022/07/31 05:22:41;;;;;;;22.63;16.65;;;15.70;99.90;;;;;;5051739;28;20029;-63
2022/07/31 05:25:07;;;;;;;28.75;19.20;;;15.70;99.90;;;;;;5051550;28;20496;-60
2022/07/31 05:27:33;;;;;;;19.80;17.73;;;15.70;99.90;;;;;;5050178;28;20029;-62
2022/07/31 05:29:59;;;;;;;21.63;17.30;;;15.70;99.90;;;;;;5050532;28;20524;-63
2022/07/31 05:32:24;;;;;;;25.50;16.80;;;15.70;99.90;;;;;;5051602;28;20036;-62
2022/07/31 05:34:50;;;;;;;17.95;16.05;;;15.70;99.90;;;;;;5050572;28;20079;-62
2022/07/31 05:37:16;;;;;;;22.30;16.27;;;15.70;99.90;;;;;;5051115;28;20044;-63
2022/07/31 05:39:41;;;;;;;30.45;17.05;;;15.80;99.90;;;;;;5049341;28;20412;-62
2022/07/31 05:42:07;;;;;;;38.42;15.95;;;15.80;99.90;;;;;;5050269;28;20029;-63
2022/07/31 05:44:33;;;;;;;68.10;17.27;;;15.90;99.90;;;;;;5051520;28;20533;-61
2022/07/31 05:46:58;;;;;;;32.85;16.80;;;15.90;99.90;;;;;;5050310;28;20516;-60
2022/07/31 05:49:27;;;;;;;24.05;17.38;;;15.90;99.90;;;;;;5051362;28;20086;-61
2022/07/31 05:51:53;;;;;;;34.97;17.77;;;15.90;99.90;;;;;;5047959;28;20120;-61
2022/07/31 05:54:19;;;;;;;24.85;16.70;;;16.00;99.90;;;;;;5050256;28;20188;-61
2022/07/31 05:56:46;;;;;;;23.48;17.30;;;15.90;99.90;;;;;;5050133;28;20079;-63
2022/07/31 05:59:12;;;;;;;17.83;16.13;;;16.00;99.90;;;;;;5050018;28;20033;-61
2022/07/31 06:01:39;;;;;;;60.85;18.73;;;16.10;99.90;;;;;;5050778;28;20044;-61
2022/07/31 06:04:04;;;;;;;103.93;18.00;;;16.10;99.90;;;;;;5050169;28;20087;-61
2022/07/31 06:06:30;;;;;;;47.38;16.48;;;16.10;99.90;;;;;;5050232;28;20025;-59
2022/07/31 06:08:56;;;;;;;60.17;16.83;;;16.10;99.90;;;;;;5049955;28;20025;-60
2022/07/31 06:11:21;;;;;;;24.60;16.50;;;16.20;99.90;;;;;;5048298;28;20507;-60
2022/07/31 06:13:47;;;;;;;33.97;18.50;;;16.20;99.90;;;;;;5050557;28;20028;-59
2022/07/31 06:16:13;;;;;;;49.17;16.38;;;16.30;99.90;;;;;;5050314;28;20032;-58
2022/07/31 06:18:40;;;;;;;30.02;15.88;;;16.30;99.90;;;;;;5049351;28;20036;-59
2022/07/31 06:21:05;;;;;;;38.85;16.90;;;16.40;99.90;;;;;;5049761;28;20449;-59
2022/07/31 06:23:31;;;;;;;19.10;17.27;;;16.50;99.90;;;;;;5050666;28;20488;-57
2022/07/31 06:25:57;;;;;;;16.42;14.98;;;16.50;99.90;;;;;;5048386;28;20025;-58
2022/07/31 06:28:23;;;;;;;23.30;16.52;;;16.60;99.90;;;;;;5049929;28;20024;-57
2022/07/31 06:30:48;;;;;;;36.45;17.13;;;16.70;99.90;;;;;;5049949;28;20032;-57
2022/07/31 06:33:14;;;;;;;17.25;15.55;;;16.60;99.90;;;;;;5050181;28;20033;-58
2022/07/31 06:35:39;;;;;;;52.83;16.85;;;16.60;99.90;;;;;;5032442;28;20499;-58
2022/07/31 06:38:05;;;;;;;56.42;15.63;;;16.60;99.90;;;;;;5048586;28;20021;-58
2022/07/31 06:40:31;;;;;;;23.60;15.38;;;16.60;99.90;;;;;;5050306;28;20021;-57
2022/07/31 06:42:56;;;;;;;16.85;14.63;;;16.60;99.90;;;;;;5049971;28;20025;-58
2022/07/31 06:45:23;;;;;;;18.70;15.13;;;16.60;99.90;;;;;;5049692;28;20088;-57
2022/07/31 06:47:48;;;;;;;16.55;15.18;;;16.70;99.90;;;;;;5049726;28;20029;-57
2022/07/31 06:50:14;;;;;;;14.88;13.75;;;16.80;99.90;;;;;;5049672;28;20388;-58
2022/07/31 06:52:40;;;;;;;14.32;13.15;;;16.80;99.90;;;;;;5050563;28;20469;-58
2022/07/31 06:55:07;;;;;;;14.38;13.23;;;16.90;99.90;;;;;;5048820;28;20021;-58
2022/07/31 06:57:32;;;;;;;14.82;13.73;;;17.00;99.90;;;;;;5049706;28;20035;-59
2022/07/31 06:59:58;;;;;;;14.38;13.38;;;17.10;99.90;;;;;;5049323;28;20025;-59
2022/07/31 07:02:24;;;;;;;14.73;13.73;;;17.20;99.90;;;;;;5049950;28;20044;-58
2022/07/31 07:04:50;;;;;;;13.18;12.32;;;17.30;99.90;;;;;;5049021;28;20523;-58
2022/07/31 07:07:16;;;;;;;11.55;10.75;;;17.60;99.90;;;;;;5047023;28;20017;-58
2022/07/31 07:09:42;;;;;;;12.98;12.10;;;17.80;99.90;;;;;;5048997;28;20017;-58
2022/07/31 07:12:08;;;;;;;10.45;9.75;;;18.10;99.90;;;;;;5049396;28;20481;-58
2022/07/31 07:14:33;;;;;;;12.70;11.80;;;18.30;99.90;;;;;;5049271;28;20064;-59
2022/07/31 07:17:02;;;;;;;10.65;9.95;;;18.60;99.90;;;;;;5048506;28;20376;-58
2022/07/31 07:19:28;;;;;;;10.77;9.98;;;18.90;99.90;;;;;;5049684;28;20029;-58
2022/07/31 07:21:53;;;;;;;10.60;9.90;;;19.00;99.90;;;;;;5048033;28;20029;-58
2022/07/31 07:24:19;;;;;;;8.85;8.25;;;19.10;99.90;;;;;;5048354;28;20040;-58
2022/07/31 07:26:44;;;;;;;9.40;8.70;;;19.50;99.90;;;;;;5048902;28;20040;-58
2022/07/31 07:29:10;;;;;;;9.18;8.57;;;19.90;99.90;;;;;;5048557;28;20660;-58
2022/07/31 07:31:36;;;;;;;8.65;8.10;;;20.30;99.90;;;;;;5049342;28;20463;-58
2022/07/31 07:34:04;;;;;;;8.75;7.95;;;20.90;99.90;;;;;;5048634;28;20484;-58
2022/07/31 07:36:31;;;;;;;8.82;8.07;;;21.70;99.90;;;;;;5048745;28;20116;-59
2022/07/31 07:38:57;;;;;;;7.10;6.63;;;22.60;99.90;;;;;;5048356;28;20170;-58
2022/07/31 07:41:24;;;;;;;6.05;5.55;;;24.10;99.90;;;;;;5047248;28;20091;-59
2022/07/31 07:43:50;;;;;;;5.75;5.30;;;26.10;99.90;;;;;;5048928;28;20040;-59
2022/07/31 07:46:16;;;;;;;6.28;5.88;;;26.90;99.90;;;;;;5047655;28;20021;-58
2022/07/31 07:48:41;;;;;;;6.10;5.70;;;27.10;99.90;;;;;;5049191;28;20033;-58
2022/07/31 07:51:07;;;;;;;5.78;5.40;;;27.20;98.50;;;;;;5046855;28;20021;-60
2022/07/31 07:53:33;;;;;;;6.00;5.50;;;27.50;93.70;;;;;;5048692;28;20445;-58
2022/07/31 07:56:00;;;;;;;5.50;4.95;;;28.30;96.10;;;;;;5048479;28;20035;-58
2022/07/31 07:58:26;;;;;;;6.00;5.60;;;29.10;81.80;;;;;;5049038;28;20063;-59
2022/07/31 08:00:51;;;;;;;4.40;4.20;;;29.80;74.50;;;;;;5049062;28;20061;-58
2022/07/31 08:03:17;;;;;;;4.60;4.30;;;30.50;67.40;;;;;;5047617;28;20033;-59
2022/07/31 08:05:43;;;;;;;4.47;4.10;;;31.90;63.70;;;;;;5048609;28;20035;-58
2022/07/31 08:08:08;;;;;;;4.45;4.15;;;32.40;58.90;;;;;;5048019;28;20136;-58
2022/07/31 08:10:34;;;;;;;4.47;4.18;;;33.10;57.50;;;;;;5047059;28;20452;-58
2022/07/31 08:13:00;;;;;;;4.70;4.40;;;33.50;56.20;;;;;;5050936;28;20021;-59
2022/07/31 08:15:28;;;;;;;4.22;3.75;;;33.70;55.80;;;;;;5048130;28;20033;-59
2022/07/31 08:17:54;;;;;;;3.30;3.10;;;34.20;54.90;;;;;;5048219;28;20057;-59
2022/07/31 08:20:20;;;;;;;3.80;3.60;;;34.20;54.40;;;;;;5048372;28;20025;-59
2022/07/31 08:22:45;;;;;;;3.53;3.22;;;34.40;53.70;;;;;;5047288;28;20024;-59
2022/07/31 08:25:11;;;;;;;3.90;3.60;;;34.70;52.00;;;;;;5048867;28;20025;-59
2022/07/31 08:27:36;;;;;;;3.70;3.40;;;34.80;51.50;;;;;;5047779;28;20057;-59
2022/07/31 08:30:03;;;;;;;3.45;3.15;;;35.10;51.70;;;;;;5048026;28;20022;-61
2022/07/31 08:32:28;;;;;;;2.97;2.78;;;35.50;51.50;;;;;;5048121;28;20060;-59
2022/07/31 08:34:54;;;;;;;1.65;1.55;;;36.00;50.40;;;;;;5048511;28;20492;-59
2022/07/31 08:37:20;;;;;;;2.80;1.75;;;36.30;49.40;;;;;;5048055;28;20021;-59
2022/07/31 08:39:50;;;;;;;2.20;2.10;;;36.60;46.50;;;;;;5047737;28;20030;-58
2022/07/31 08:42:16;;;;;;;2.00;1.77;;;36.30;46.60;;;;;;5048814;28;20104;-59
2022/07/31 08:44:43;;;;;;;2.38;2.13;;;36.10;48.20;;;;;;5048204;28;20551;-58
2022/07/31 08:47:13;;;;;;;2.63;2.40;;;36.10;48.60;;;;;;5046981;28;20045;-59
2022/07/31 08:49:45;;;;;;;2.55;2.15;;;36.30;48.30;;;;;;5047109;28;20032;-59
2022/07/31 08:52:17;;;;;;;3.33;1.98;;;36.40;47.20;;;;;;5045137;28;20516;-59
2022/07/31 08:54:44;;;;;;;2.72;2.50;;;36.70;46.90;;;;;;5047745;28;20033;-59
2022/07/31 08:57:11;;;;;;;2.00;1.90;;;36.20;47.00;;;;;;5047118;28;20053;-59
2022/07/31 08:59:39;;;;;;;2.58;2.40;;;36.20;46.90;;;;;;5047683;28;20029;-59
2022/07/31 09:02:05;;;;;;;2.55;2.35;;;36.20;47.10;;;;;;5045506;28;20108;-60
2022/07/31 09:04:31;;;;;;;3.20;1.88;;;36.00;48.00;;;;;;5046994;28;20104;-60
2022/07/31 09:06:59;;;;;;;2.33;2.13;;;36.50;48.00;;;;;;5047718;28;20032;-59
2022/07/31 09:09:28;;;;;;;2.95;2.75;;;37.00;46.90;;;;;;5046423;28;20047;-60
2022/07/31 09:11:55;;;;;;;3.70;2.38;;;36.80;45.60;;;;;;5045363;28;20029;-59
2022/07/31 09:14:30;;;;;;;3.95;2.53;;;36.40;47.00;;;;;;5047083;28;20496;-59
2022/07/31 09:16:56;;;;;;;2.60;2.10;;;36.70;46.60;;;;;;5046851;28;20555;-59
2022/07/31 09:19:23;;;;;;;2.60;2.35;;;37.10;45.50;;;;;;5048444;28;20040;-60
2022/07/31 09:21:51;;;;;;;3.03;2.38;;;37.60;43.50;;;;;;5047756;28;20052;-59
2022/07/31 09:24:32;;;;;;;2.22;1.83;;;37.60;45.00;;;;;;5046751;28;20116;-59
2022/07/31 09:27:07;;;;;;;2.20;2.00;;;37.20;44.80;;;;;;5046218;28;20504;-60
2022/07/31 09:29:43;;;;;;;2.60;1.98;;;36.90;44.50;;;;;;5047668;28;20041;-60
2022/07/31 09:32:19;;;;;;;5.28;2.05;;;36.70;45.20;;;;;;5047352;28;20036;-59
2022/07/31 09:34:46;;;;;;;2.35;2.13;;;37.20;43.80;;;;;;5029837;28;20025;-62
2022/07/31 09:37:19;;;;;;;2.20;1.95;;;37.00;44.10;;;;;;5051009;28;20075;-60
2022/07/31 09:39:53;;;;;;;4.38;1.60;;;37.10;45.50;;;;;;5050650;28;20052;-60
2022/07/31 09:42:20;;;;;;;2.95;1.98;;;37.00;46.60;;;;;;5043603;28;20036;-59
2022/07/31 09:44:47;;;;;;;3.33;2.03;;;36.80;45.30;;;;;;5048633;28;20041;-58
2022/07/31 09:47:21;;;;;;;2.97;1.98;;;36.80;44.20;;;;;;5050088;28;20041;-59
2022/07/31 09:49:57;;;;;;;3.35;3.05;;;36.80;44.30;;;;;;5049579;28;20029;-59
2022/07/31 09:52:24;;;;;;;2.17;1.98;;;36.60;44.50;;;;;;5037379;28;20500;-58
2022/07/31 09:55:14;;;;;;;2.70;2.50;;;36.60;44.80;;;;;;5049607;28;20035;-58
2022/07/31 09:57:57;;;;;;;2.28;2.00;;;37.40;44.70;;;;;;5050104;28;20439;-58
2022/07/31 10:00:24;;;;;;;2.88;1.90;;;37.80;43.40;;;;;;5031816;28;20066;-58
2022/07/31 10:02:52;;;;;;;3.35;1.70;;;37.90;43.80;;;;;;5049154;28;20048;-58
2022/07/31 10:05:19;;;;;;;1.60;1.42;;;38.10;44.50;;;;;;5050081;28;20039;-59
2022/07/31 10:07:46;;;;;;;3.38;2.40;;;38.60;43.60;;;;;;5049528;28;20075;-58
2022/07/31 10:10:13;;;;;;;3.55;1.90;;;39.00;41.00;;;;;;5050648;28;20063;-58
2022/07/31 10:12:41;;;;;;;2.10;1.70;;;38.30;42.90;;;;;;5050686;28;20025;-59
2022/07/31 10:15:10;;;;;;;2.90;2.10;;;37.30;43.90;;;;;;5049808;28;20424;-58
2022/07/31 10:17:40;;;;;;;3.40;2.05;;;36.10;43.80;;;;;;5032504;28;20057;-58
2022/07/31 10:20:07;;;;;;;9.30;1.80;;;35.40;46.50;;;;;;5050166;28;20065;-59
2022/07/31 10:22:43;;;;;;;4.57;1.80;;;35.50;47.60;;;;;;5049282;28;20035;-58
2022/07/31 10:25:12;;;;;;;6.20;1.95;;;35.90;46.20;;;;;;5049192;28;20508;-58
2022/07/31 10:27:39;;;;;;;4.97;1.80;;;36.60;45.20;;;;;;5049336;28;20127;-58
2022/07/31 10:30:06;;;;;;;3.80;1.65;;;38.10;44.70;;;;;;5050181;28;20017;-59
2022/07/31 10:32:32;;;;;;;2.47;1.52;;;39.00;42.70;;;;;;5044875;28;20043;-58
2022/07/31 10:34:59;;;;;;;4.35;2.03;;;39.10;40.50;;;;;;5048833;28;20108;-58
2022/07/31 10:37:33;;;;;;;4.25;1.50;;;38.40;41.60;;;;;;5045505;28;20017;-58
2022/07/31 10:40:06;;;;;;;2.35;1.65;;;37.40;42.60;;;;;;5047965;28;20108;-58
2022/07/31 10:42:52;;;;;;;3.83;1.70;;;36.40;43.90;;;;;;5049343;28;20087;-59
2022/07/31 10:45:18;;;;;;;2.80;1.65;;;35.50;44.80;;;;;;5049734;28;20029;-58
2022/07/31 10:47:57;;;;;;;2.25;1.75;;;35.40;45.10;;;;;;5048778;28;20459;-58
2022/07/31 10:50:25;;;;;;;2.47;1.63;;;35.50;45.30;;;;;;5049806;28;20032;-58
2022/07/31 10:52:52;;;;;;;3.67;2.05;;;35.40;45.20;;;;;;5048972;28;20110;-59
2022/07/31 10:55:25;;;;;;;4.18;1.98;;;35.30;45.50;;;;;;5050099;28;20029;-58
2022/07/31 10:57:51;;;;;;;1.70;1.60;;;35.70;44.80;;;;;;5049001;28;20029;-58
2022/07/31 11:00:19;;;;;;;2.17;1.52;;;36.30;44.10;;;;;;5049014;28;20559;-58
2022/07/31 11:02:46;;;;;;;3.75;1.80;;;36.50;43.50;;;;;;5049768;28;20560;-58
2022/07/31 11:05:22;;;;;;;3.08;1.80;;;36.40;42.60;;;;;;5048872;28;20037;-58
2022/07/31 11:08:00;;;;;;;3.55;1.70;;;36.00;44.20;;;;;;5048761;28;20051;-58
2022/07/31 11:10:26;;;;;;;2.85;1.27;;;35.80;44.80;;;;;;5041696;28;20021;-58
2022/07/31 11:13:03;;;;;;;8.90;1.92;;;35.70;45.10;;;;;;5050476;28;20033;-58
2022/07/31 11:15:30;;;;;;;1.40;1.30;;;35.60;43.80;;;;;;5047734;28;20196;-58
2022/07/31 11:17:56;;;;;;;1.75;1.65;;;35.40;43.90;;;;;;5048937;28;20480;-58
2022/07/31 11:20:27;;;;;;;2.30;1.52;;;35.50;44.40;;;;;;5049559;28;20084;-58
2022/07/31 11:23:02;;;;;;;5.75;1.65;;;35.40;44.90;;;;;;5048708;28;20488;-58
2022/07/31 11:25:31;;;;;;;2.28;1.70;;;35.00;44.30;;;;;;5034854;28;20496;-58
2022/07/31 11:28:08;;;;;;;3.90;1.50;;;34.70;43.60;;;;;;5041252;28;20029;-58
2022/07/31 11:30:34;;;;;;;1.45;1.35;;;34.30;43.60;;;;;;5048818;28;20025;-58
2022/07/31 11:33:00;;;;;;;4.88;1.23;;;33.90;43.80;;;;;;5048866;28;20025;-58
2022/07/31 11:35:28;;;;;;;1.50;1.40;;;33.40;44.40;;;;;;5048985;28;20056;-58
2022/07/31 11:37:54;;;;;;;4.93;1.70;;;32.90;45.40;;;;;;5048199;28;20031;-59
2022/07/31 11:40:20;;;;;;;3.88;1.35;;;32.70;46.40;;;;;;5048853;28;20021;-58
2022/07/31 11:42:46;;;;;;;2.75;1.63;;;32.80;46.80;;;;;;5049461;28;20694;-58
2022/07/31 11:45:14;;;;;;;2.30;1.40;;;32.90;46.30;;;;;;5048963;28;20084;-59
2022/07/31 11:47:44;;;;;;;2.97;1.00;;;32.80;44.10;;;;;;5030534;28;20040;-59
2022/07/31 11:50:11;;;;;;;;;;;32.70;43.80;;;;;;5049757;28;20083;-58
2022/07/31 11:52:42;;;;;;;2.20;1.30;;;32.50;44.20;;;;;;5048821;28;19905;-58
2022/07/31 11:55:09;;;;;;;1.40;1.30;;;32.20;44.40;;;;;;5048850;28;20112;-59
2022/07/31 11:57:36;;;;;;;1.50;1.20;;;31.80;46.10;;;;;;5047200;28;20029;-58
2022/07/31 12:00:21;;;;;;;1.30;1.20;;;31.60;46.30;;;;;;5046997;28;20361;-58
2022/07/31 12:02:46;;;;;;;4.38;1.00;;;31.70;47.00;;;;;;5047430;28;20029;-58
2022/07/31 12:05:13;;;;;;;1.27;1.10;;;32.10;47.00;;;;;;5048371;28;20029;-58
2022/07/31 12:07:41;;;;;;;2.72;1.20;;;32.50;45.90;;;;;;5048878;28;20180;-59
2022/07/31 12:10:10;;;;;;;1.25;1.13;;;32.80;45.60;;;;;;5046951;28;20025;-59
2022/07/31 12:12:37;;;;;;;3.65;1.40;;;33.00;44.80;;;;;;5048018;28;20406;-58
2022/07/31 12:15:19;;;;;;;1.83;1.17;;;32.90;45.30;;;;;;5046796;28;20449;-58
2022/07/31 12:17:46;;;;;;;2.10;1.40;;;33.00;45.90;;;;;;5047180;28;20065;-59
2022/07/31 12:20:13;;;;;;;1.88;1.40;;;33.10;45.80;;;;;;5048410;28;20510;-58
2022/07/31 12:22:40;;;;;;;1.70;1.38;;;33.10;45.90;;;;;;5048792;28;20033;-58
2022/07/31 12:25:08;;;;;;;2.38;1.23;;;32.60;46.40;;;;;;5048093;28;20040;-58
2022/07/31 12:27:35;;;;;;;1.95;1.40;;;32.50;47.70;;;;;;5047796;28;20052;-58
2022/07/31 12:30:12;;;;;;;4.03;1.40;;;32.30;47.80;;;;;;5048457;28;20464;-58
2022/07/31 12:32:37;;;;;;;4.28;1.48;;;32.30;47.60;;;;;;5046106;28;20025;-58
2022/07/31 12:35:04;;;;;;;2.75;1.25;;;32.70;47.60;;;;;;5041839;28;20025;-58
2022/07/31 12:37:48;;;;;;;1.67;1.20;;;32.90;46.80;;;;;;5048270;28;20021;-58